Time;durP1;ratioP1;P1;durP2;ratioP2;P2;SDS_P1;SDS_P2;PMS_P1;PMS_P2;Temp;Humidity;BMP_temperature;BMP_pressure;BME280_temperature;BME280_humidity;BME280_pressure;Samples;Min_cycle;Max_cycle;Signal;HPM_P1;HPM_P2
2024/02/17 00:01:39;;;;;;;14.27;9.67;;;;;;;;;;6206445;22;20442;-87
2024/02/17 00:04:29;;;;;;;13.47;9.40;;;;;;;;;;6249988;22;20415;-85
2024/02/17 00:07:03;;;;;;;13.63;9.23;;;;;;;;;;6251427;22;20411;-86
2024/02/17 00:10:15;;;;;;;14.07;9.20;;;;;;;;;;6251627;22;20383;-85
2024/02/17 00:16:11;;;;;;;13.00;9.80;;;;;;;;;;6246465;22;20375;-86
2024/02/17 00:26:16;;;;;;;19.57;10.63;;;;;;;;;;6270395;22;20441;-85
2024/02/17 00:29:28;;;;;;;15.00;9.83;;;;;;;;;;6216569;22;20404;-87
2024/02/17 00:32:39;;;;;;;15.47;10.37;;;;;;;;;;6244251;22;20444;-86
2024/02/17 00:35:59;;;;;;;16.20;10.20;;;;;;;;;;6243093;22;20395;-85
2024/02/17 00:39:04;;;;;;;15.00;10.20;;;;;;;;;;6121379;23;20427;-84
2024/02/17 00:41:52;;;;;;;;;;;;;;;;;;;;;
2024/02/17 00:44:46;;;;;;;18.33;11.40;;;;;;;;;;6143132;23;20415;-85
2024/02/17 00:47:29;;;;;;;21.50;10.97;;;;;;;;;;6223201;22;20408;-84
2024/02/17 00:50:08;;;;;;;14.20;10.97;;;;;;;;;;6256796;22;20428;-85
2024/02/17 00:56:05;;;;;;;18.90;10.70;;;;;;;;;;6275522;22;20455;-86
2024/02/17 00:58:41;;;;;;;16.77;11.50;;;;;;;;;;6254611;22;20478;-84
2024/02/17 01:01:15;;;;;;;16.37;12.67;;;;;;;;;;6256466;22;20778;-85
2024/02/17 01:03:54;;;;;;;19.80;11.60;;;;;;;;;;6275649;22;20471;-85
2024/02/17 01:06:35;;;;;;;18.23;12.07;;;;;;;;;;6251189;22;20475;-85
2024/02/17 01:09:08;;;;;;;17.30;10.87;;;;;;;;;;6251179;22;20422;-86
2024/02/17 01:11:45;;;;;;;16.00;10.50;;;;;;;;;;6250253;22;20443;-85
2024/02/17 01:14:27;;;;;;;14.90;11.23;;;;;;;;;;6247713;22;20502;-85
2024/02/17 01:17:11;;;;;;;14.83;10.70;;;;;;;;;;6249968;22;20399;-83
2024/02/17 01:20:17;;;;;;;17.27;10.90;;;;;;;;;;6275926;22;20483;-84
2024/02/17 01:27:08;;;;;;;15.93;10.70;;;;;;;;;;6241396;22;20415;-84
2024/02/17 01:30:21;;;;;;;15.37;10.20;;;;;;;;;;6113325;22;20417;-85
2024/02/17 01:32:59;;;;;;;18.20;11.40;;;;;;;;;;6250592;22;20953;-85
2024/02/17 01:35:51;;;;;;;15.10;11.00;;;;;;;;;;6252853;22;20426;-85
2024/02/17 01:38:28;;;;;;;15.23;10.73;;;;;;;;;;6256854;22;20549;-86
2024/02/17 01:41:01;;;;;;;19.07;11.77;;;;;;;;;;6282338;22;20435;-87
2024/02/17 01:44:00;;;;;;;16.63;10.30;;;;;;;;;;6246486;22;20458;-86
2024/02/17 01:47:11;;;;;;;17.27;11.90;;;;;;;;;;6251351;22;20400;-85
2024/02/17 01:49:57;;;;;;;18.73;12.80;;;;;;;;;;6249739;22;20432;-85
2024/02/17 01:52:44;;;;;;;22.27;11.40;;;;;;;;;;6235412;22;20428;-84
2024/02/17 01:55:20;;;;;;;18.33;10.87;;;;;;;;;;6249388;22;20415;-85
2024/02/17 01:58:06;;;;;;;17.90;11.20;;;;;;;;;;6248270;22;20417;-84
2024/02/17 02:00:39;;;;;;;20.17;11.93;;;;;;;;;;6248650;22;21804;-85
2024/02/17 02:03:24;;;;;;;17.27;11.33;;;;;;;;;;6248133;22;20439;-85
2024/02/17 02:06:21;;;;;;;16.03;9.73;;;;;;;;;;6250279;22;20728;-84
2024/02/17 02:09:04;;;;;;;19.20;10.77;;;;;;;;;;6243258;22;20402;-88
2024/02/17 02:12:04;;;;;;;14.13;10.73;;;;;;;;;;6281227;22;20431;-85
2024/02/17 02:15:04;;;;;;;15.30;11.37;;;;;;;;;;6232533;22;20901;-83
2024/02/17 02:17:53;;;;;;;15.30;11.00;;;;;;;;;;6294094;22;20426;-85
2024/02/17 02:20:30;;;;;;;15.63;11.53;;;;;;;;;;6262838;22;20507;-85
2024/02/17 02:23:14;;;;;;;16.40;11.80;;;;;;;;;;6256428;22;20408;-86
2024/02/17 02:25:56;;;;;;;17.83;11.97;;;;;;;;;;6256480;22;20477;-86
2024/02/17 02:28:27;;;;;;;14.23;10.67;;;;;;;;;;6261986;22;20392;-86
2024/02/17 02:31:00;;;;;;;13.07;10.40;;;;;;;;;;6264759;22;20448;-85
2024/02/17 02:33:55;;;;;;;12.07;9.63;;;;;;;;;;6264324;22;20418;-83
2024/02/17 02:36:41;;;;;;;13.57;10.30;;;;;;;;;;6262236;22;20422;-86
2024/02/17 02:39:25;;;;;;;15.97;10.87;;;;;;;;;;6276933;22;20833;-84
2024/02/17 02:42:29;;;;;;;12.90;10.50;;;;;;;;;;6227472;22;20420;-84
2024/02/17 02:45:09;;;;;;;15.00;10.23;;;;;;;;;;6247661;22;20414;-85
2024/02/17 02:47:45;;;;;;;13.93;10.17;;;;;;;;;;6249262;22;20399;-88
2024/02/17 02:50:45;;;;;;;15.07;10.53;;;;;;;;;;6274938;22;20407;-85
2024/02/17 02:53:43;;;;;;;14.37;10.03;;;;;;;;;;6226850;22;20400;-84
2024/02/17 02:56:28;;;;;;;15.00;10.73;;;;;;;;;;6282774;22;20435;-85
2024/02/17 02:59:13;;;;;;;12.33;9.53;;;;;;;;;;6264127;22;20491;-84
2024/02/17 03:01:44;;;;;;;13.33;9.03;;;;;;;;;;6239209;22;20462;-84
2024/02/17 03:04:45;;;;;;;13.77;9.53;;;;;;;;;;6244033;22;20469;-86
2024/02/17 03:07:42;;;;;;;13.67;9.80;;;;;;;;;;6245469;22;20438;-86
2024/02/17 03:10:29;;;;;;;11.97;10.20;;;;;;;;;;6225517;22;20427;-85
2024/02/17 03:13:16;;;;;;;16.23;9.33;;;;;;;;;;6244555;22;20540;-83
2024/02/17 03:15:44;;;;;;;13.30;9.40;;;;;;;;;;6229460;22;20945;-84
2024/02/17 03:21:55;;;;;;;14.40;10.00;;;;;;;;;;6269521;22;20485;-86
2024/02/17 03:24:56;;;;;;;16.10;9.10;;;;;;;;;;6268568;22;20414;-82
2024/02/17 03:27:53;;;;;;;;;;;;;;;;;;;;;
2024/02/17 03:31:06;;;;;;;11.63;8.73;;;;;;;;;;6267658;22;20448;-85
2024/02/17 03:33:55;;;;;;;15.37;8.33;;;;;;;;;;6125427;23;20403;-86
2024/02/17 03:36:27;;;;;;;15.73;9.87;;;;;;;;;;6146624;23;20411;-84
2024/02/17 03:39:07;;;;;;;13.10;8.40;;;;;;;;;;6123400;23;20928;-85
2024/02/17 03:41:39;;;;;;;19.10;9.27;;;;;;;;;;6123056;23;20457;-86
2024/02/17 03:44:14;;;;;;;12.83;8.67;;;;;;;;;;6119848;23;20407;-86
2024/02/17 03:47:28;;;;;;;14.40;8.70;;;;;;;;;;6147024;23;20692;-86
2024/02/17 03:50:05;;;;;;;12.03;8.80;;;;;;;;;;6122392;23;20923;-85
2024/02/17 03:52:46;;;;;;;12.63;9.10;;;;;;;;;;6146686;23;21426;-88
2024/02/17 03:58:19;;;;;;;12.87;8.10;;;;;;;;;;6135597;23;20448;-85
2024/02/17 04:04:34;;;;;;;12.27;7.73;;;;;;;;;;6143765;23;20438;-85
2024/02/17 04:07:22;;;;;;;13.53;7.67;;;;;;;;;;6146482;23;20418;-85
2024/02/17 04:10:00;;;;;;;12.40;7.57;;;;;;;;;;6125347;22;20422;-86
2024/02/17 04:12:52;;;;;;;17.43;7.10;;;;;;;;;;6218981;22;20447;-85
2024/02/17 04:15:45;;;;;;;9.00;7.00;;;;;;;;;;6251909;22;20442;-85
2024/02/17 04:18:41;;;;;;;13.13;9.10;;;;;;;;;;6249466;22;20392;-84
2024/02/17 04:21:18;;;;;;;13.67;7.10;;;;;;;;;;6226394;22;20436;-87
2024/02/17 04:24:05;;;;;;;10.83;6.90;;;;;;;;;;6273407;22;20411;-84
2024/02/17 04:26:56;;;;;;;13.60;7.33;;;;;;;;;;6249881;22;20411;-83
2024/02/17 04:30:06;;;;;;;10.83;7.70;;;;;;;;;;6281114;22;20897;-85
2024/02/17 04:32:57;;;;;;;17.33;8.23;;;;;;;;;;6251106;22;20447;-84
2024/02/17 04:35:30;;;;;;;15.43;7.50;;;;;;;;;;6252105;22;20419;-86
2024/02/17 04:38:18;;;;;;;13.20;6.97;;;;;;;;;;6274724;22;20467;-84
2024/02/17 04:40:51;;;;;;;10.57;7.50;;;;;;;;;;6247152;22;20411;-85
2024/02/17 04:43:47;;;;;;;13.63;8.03;;;;;;;;;;6249300;22;20596;-84
2024/02/17 04:46:22;;;;;;;13.17;6.50;;;;;;;;;;6248080;22;20399;-86
2024/02/17 04:49:02;;;;;;;10.40;6.97;;;;;;;;;;6273283;22;21175;-84
2024/02/17 04:51:45;;;;;;;8.40;6.43;;;;;;;;;;6154712;23;20458;-87
2024/02/17 04:54:41;;;;;;;13.20;7.60;;;;;;;;;;6146056;23;21014;-84
2024/02/17 04:57:24;;;;;;;;;;;;;;;;;;;;;
2024/02/17 05:00:01;;;;;;;11.60;8.93;;;;;;;;;;6194383;22;20510;-86
2024/02/17 05:02:55;;;;;;;11.47;8.43;;;;;;;;;;6247912;22;20399;-84
2024/02/17 05:05:39;;;;;;;;;;;;;;;;;;;;;
2024/02/17 05:08:19;;;;;;;15.73;8.90;;;;;;;;;;6271352;22;20454;-84
2024/02/17 05:10:56;;;;;;;13.80;8.70;;;;;;;;;;6273034;22;20458;-82
2024/02/17 05:13:35;;;;;;;14.67;9.93;;;;;;;;;;6242847;22;20434;-83
2024/02/17 05:16:19;;;;;;;12.70;8.63;;;;;;;;;;6247625;22;20587;-84
2024/02/17 05:18:53;;;;;;;10.50;8.40;;;;;;;;;;6258788;22;20548;-86
2024/02/17 05:21:41;;;;;;;15.87;9.17;;;;;;;;;;6271327;22;20427;-87
2024/02/17 05:24:31;;;;;;;9.67;8.67;;;;;;;;;;6261162;22;20415;-85
2024/02/17 05:27:37;;;;;;;11.13;9.23;;;;;;;;;;6295229;22;20400;-85
2024/02/17 05:33:07;;;;;;;12.10;9.33;;;;;;;;;;6268729;22;21254;-85
2024/02/17 05:38:59;;;;;;;11.90;9.40;;;;;;;;;;6225241;22;20395;-88
2024/02/17 05:41:33;;;;;;;10.93;9.27;;;;;;;;;;6243879;23;20439;-84
2024/02/17 05:47:19;;;;;;;12.90;9.13;;;;;;;;;;6253933;22;20408;-84
2024/02/17 05:49:55;;;;;;;12.77;10.10;;;;;;;;;;6258555;23;20385;-84
2024/02/17 05:52:52;;;;;;;15.17;10.50;;;;;;;;;;6243576;23;20456;-85
2024/02/17 05:55:52;;;;;;;15.60;10.40;;;;;;;;;;6230828;23;20407;-85
2024/02/17 05:58:48;;;;;;;12.53;10.40;;;;;;;;;;6241944;23;20467;-86
2024/02/17 06:01:18;;;;;;;15.60;9.70;;;;;;;;;;6246227;23;20901;-87
2024/02/17 06:04:10;;;;;;;13.37;10.10;;;;;;;;;;6244392;23;20408;-84
2024/02/17 06:07:22;;;;;;;11.80;9.60;;;;;;;;;;6243011;23;20977;-85
2024/02/17 06:10:06;;;;;;;10.83;9.40;;;;;;;;;;6217018;23;20397;-84
2024/02/17 06:12:48;;;;;;;15.97;9.70;;;;;;;;;;6239818;23;20779;-87
2024/02/17 06:15:36;;;;;;;12.27;8.60;;;;;;;;;;6217027;23;20899;-86
2024/02/17 06:21:33;;;;;;;13.27;9.57;;;;;;;;;;6240498;23;20470;-85
2024/02/17 06:24:03;;;;;;;16.07;10.13;;;;;;;;;;6238700;23;20467;-85
2024/02/17 06:26:47;;;;;;;16.70;10.30;;;;;;;;;;6239645;23;20483;-85
2024/02/17 06:30:14;;;;;;;;;;;;;;;;;;;;;
2024/02/17 06:33:19;;;;;;;13.60;10.00;;;;;;;;;;6140339;23;21013;-83
2024/02/17 06:36:03;;;;;;;14.30;9.97;;;;;;;;;;6193551;23;20519;-86
2024/02/17 06:38:50;;;;;;;12.87;8.50;;;;;;;;;;6223600;23;20522;-86
2024/02/17 06:41:57;;;;;;;14.37;10.00;;;;;;;;;;6216041;23;20421;-86
2024/02/17 06:44:40;;;;;;;13.77;9.73;;;;;;;;;;6237204;23;20381;-83
2024/02/17 06:47:30;;;;;;;16.23;10.30;;;;;;;;;;6234624;23;20415;-84
2024/02/17 06:50:11;;;;;;;13.20;9.60;;;;;;;;;;6240331;22;20556;-87
2024/02/17 06:55:55;;;;;;;16.60;10.20;;;;;;;;;;6246797;22;20467;-86
2024/02/17 06:58:57;;;;;;;12.73;9.70;;;;;;;;;;6245659;23;20388;-85
2024/02/17 07:01:53;;;;;;;13.40;9.10;;;;;;;;;;6246146;23;20436;-84
2024/02/17 07:04:25;;;;;;;11.07;9.63;;;;;;;;;;6245480;23;20863;-84
2024/02/17 07:07:22;;;;;;;12.93;9.50;;;;;;;;;;6243658;23;20387;-84
2024/02/17 07:10:38;;;;;;;15.67;10.23;;;;;;;;;;6236826;23;20401;-85
2024/02/17 07:13:23;;;;;;;13.73;9.57;;;;;;;;;;6240761;23;20440;-85
2024/02/17 07:16:19;;;;;;;12.33;9.83;;;;;;;;;;6242004;23;20396;-84
2024/02/17 07:19:19;;;;;;;12.63;10.03;;;;;;;;;;6228663;23;20409;-83
2024/02/17 07:25:16;;;;;;;17.77;10.60;;;;;;;;;;6244036;23;20432;-84
2024/02/17 07:28:03;;;;;;;13.20;8.90;;;;;;;;;;6242569;23;20425;-88
2024/02/17 07:30:42;;;;;;;15.80;10.60;;;;;;;;;;6241103;23;20423;-84
2024/02/17 07:33:46;;;;;;;12.70;8.17;;;;;;;;;;6236780;23;20467;-86
2024/02/17 07:37:06;;;;;;;;;;;;;;;;;;;;;
2024/02/17 07:40:44;;;;;;;15.17;8.97;;;;;;;;;;6174317;22;20399;-86
2024/02/17 07:43:27;;;;;;;10.57;8.57;;;;;;;;;;6222521;22;20432;-84
2024/02/17 07:46:05;;;;;;;11.20;8.30;;;;;;;;;;6236283;23;20424;-84
2024/02/17 07:48:41;;;;;;;11.53;8.97;;;;;;;;;;6238662;23;20397;-85
2024/02/17 07:51:31;;;;;;;13.57;8.87;;;;;;;;;;6239036;23;20428;-86
2024/02/17 07:58:06;;;;;;;11.20;8.40;;;;;;;;;;6238860;22;20416;-86
2024/02/17 08:01:20;;;;;;;14.97;9.23;;;;;;;;;;6128850;23;20439;-87
2024/02/17 08:04:03;;;;;;;11.57;8.27;;;;;;;;;;6076595;23;20855;-85
2024/02/17 08:07:11;;;;;;;14.40;9.17;;;;;;;;;;6117391;23;20408;-84
2024/02/17 08:10:07;;;;;;;15.67;9.30;;;;;;;;;;6128907;23;20498;-86
2024/02/17 08:13:24;;;;;;;14.60;9.80;;;;;;;;;;6129389;23;20512;-85
2024/02/17 08:16:25;;;;;;;11.47;7.37;;;;;;;;;;6132141;23;20423;-86
2024/02/17 08:26:36;;;;;;;11.73;8.80;;;;;;;;;;6136581;23;20888;-85
2024/02/17 08:29:30;;;;;;;14.03;8.40;;;;;;;;;;6040120;23;20513;-86
2024/02/17 08:32:41;;;;;;;9.63;8.10;;;;;;;;;;6051905;23;20459;-86
2024/02/17 08:35:31;;;;;;;11.40;8.50;;;;;;;;;;6127044;23;20498;-85
2024/02/17 08:42:01;;;;;;;9.30;7.37;;;;;;;;;;6173757;23;20668;-83
2024/02/17 08:44:57;;;;;;;15.00;9.10;;;;;;;;;;6200481;23;20434;-84
2024/02/17 08:47:39;;;;;;;12.40;8.10;;;;;;;;;;6240927;22;20468;-85
2024/02/17 08:50:22;;;;;;;12.87;8.43;;;;;;;;;;6243550;23;20404;-85
2024/02/17 08:53:08;;;;;;;10.97;8.70;;;;;;;;;;6241636;23;20524;-86
2024/02/17 08:56:08;;;;;;;12.60;9.30;;;;;;;;;;6242823;23;20419;-85
2024/02/17 09:01:46;;;;;;;14.13;8.57;;;;;;;;;;6177744;23;20429;-87
2024/02/17 09:04:20;;;;;;;13.83;7.90;;;;;;;;;;6238787;23;20408;-83
2024/02/17 09:07:07;;;;;;;10.93;8.07;;;;;;;;;;6243247;23;20411;-86
2024/02/17 09:09:52;;;;;;;9.30;8.03;;;;;;;;;;6243117;23;20930;-86
2024/02/17 09:12:51;;;;;;;11.23;7.97;;;;;;;;;;6225530;23;20441;-84
2024/02/17 09:21:02;;;;;;;11.50;7.80;;;;;;;;;;6278578;22;20448;-85
2024/02/17 09:23:49;;;;;;;11.60;8.57;;;;;;;;;;6222404;23;20444;-84
2024/02/17 09:26:37;;;;;;;12.97;8.03;;;;;;;;;;6230876;22;20951;-85
2024/02/17 09:29:27;;;;;;;13.20;8.13;;;;;;;;;;6228005;23;20356;-85
2024/02/17 09:32:02;;;;;;;14.90;7.97;;;;;;;;;;6221920;23;20455;-85
2024/02/17 09:34:49;;;;;;;9.43;7.33;;;;;;;;;;6225819;23;20409;-85
2024/02/17 09:37:44;;;;;;;11.67;8.33;;;;;;;;;;6247687;23;20408;-84
2024/02/17 09:40:12;;;;;;;14.70;9.90;;;;;;;;;;6215469;23;20401;-87
2024/02/17 09:43:09;;;;;;;12.33;8.60;;;;;;;;;;6246118;23;20393;-86
2024/02/17 09:46:07;;;;;;;12.20;7.63;;;;;;;;;;6247937;23;20434;-84
2024/02/17 09:48:43;;;;;;;10.40;7.30;;;;;;;;;;6224387;23;20392;-87
2024/02/17 09:51:19;;;;;;;9.83;7.00;;;;;;;;;;6229681;23;20483;-86
2024/02/17 09:54:00;;;;;;;10.90;7.63;;;;;;;;;;6233269;23;20464;-84
2024/02/17 09:56:42;;;;;;;10.27;7.70;;;;;;;;;;6255173;23;20526;-86
2024/02/17 09:59:13;;;;;;;10.10;8.30;;;;;;;;;;6257740;23;20404;-87
2024/02/17 10:02:02;;;;;;;13.50;7.70;;;;;;;;;;6256115;22;20541;-86
2024/02/17 10:05:19;;;;;;;14.97;8.00;;;;;;;;;;6235094;23;20408;-86
2024/02/17 10:08:09;;;;;;;12.73;7.70;;;;;;;;;;6189435;23;20404;-86
2024/02/17 10:11:21;;;;;;;;;;;;;;;;;;;;;
2024/02/17 10:14:08;;;;;;;11.93;8.43;;;;;;;;;;6257469;23;20451;-86
2024/02/17 10:16:38;;;;;;;10.97;7.73;;;;;;;;;;6221076;23;20524;-84
2024/02/17 10:19:19;;;;;;;10.13;8.33;;;;;;;;;;6222367;23;20409;-83
2024/02/17 10:22:02;;;;;;;11.23;8.00;;;;;;;;;;6222669;23;20442;-84
2024/02/17 10:24:38;;;;;;;12.50;8.50;;;;;;;;;;6212171;23;21297;-84
2024/02/17 10:27:20;;;;;;;16.83;9.47;;;;;;;;;;6210839;23;20439;-85
2024/02/17 10:33:13;;;;;;;13.27;8.10;;;;;;;;;;6247349;23;20440;-85
2024/02/17 10:36:07;;;;;;;12.27;9.63;;;;;;;;;;6246553;23;20846;-85
2024/02/17 10:38:51;;;;;;;14.67;9.90;;;;;;;;;;6220841;23;20792;-85
2024/02/17 10:41:27;;;;;;;12.70;9.60;;;;;;;;;;6223418;23;20408;-85
2024/02/17 10:44:16;;;;;;;17.27;9.67;;;;;;;;;;6246464;23;20416;-86
2024/02/17 10:46:50;;;;;;;16.77;9.60;;;;;;;;;;6222122;23;20422;-85
2024/02/17 10:49:28;;;;;;;18.70;11.20;;;;;;;;;;6223599;23;20412;-84
2024/02/17 10:52:08;;;;;;;13.70;9.63;;;;;;;;;;6245014;22;20433;-84
2024/02/17 10:54:56;;;;;;;12.90;9.47;;;;;;;;;;6221323;23;20404;-85
2024/02/17 10:57:47;;;;;;;12.47;8.83;;;;;;;;;;6223526;23;20372;-86
2024/02/17 11:00:27;;;;;;;10.87;9.00;;;;;;;;;;6246299;22;20448;-87
2024/02/17 11:03:00;;;;;;;13.23;8.83;;;;;;;;;;6244091;23;20419;-85
2024/02/17 11:05:38;;;;;;;16.17;10.33;;;;;;;;;;6249127;23;20484;-85
2024/02/17 11:08:14;;;;;;;13.57;9.93;;;;;;;;;;6222572;23;20416;-85
2024/02/17 11:10:57;;;;;;;17.77;10.33;;;;;;;;;;6246542;22;20424;-85
2024/02/17 11:13:34;;;;;;;14.13;9.87;;;;;;;;;;6223614;23;20483;-84
2024/02/17 11:16:11;;;;;;;11.23;9.70;;;;;;;;;;6229891;23;20401;-85
2024/02/17 11:19:12;;;;;;;12.43;9.37;;;;;;;;;;6261268;22;20533;-86
2024/02/17 11:22:22;;;;;;;18.13;10.13;;;;;;;;;;6220140;23;20475;-85
2024/02/17 11:24:54;;;;;;;14.50;9.63;;;;;;;;;;6212530;23;20401;-85
2024/02/17 11:27:42;;;;;;;11.23;9.33;;;;;;;;;;6219959;23;20425;-85
2024/02/17 11:30:55;;;;;;;15.97;10.00;;;;;;;;;;6118985;23;21032;-85
2024/02/17 11:37:11;;;;;;;16.77;9.43;;;;;;;;;;6240413;23;20412;-86
2024/02/17 11:39:53;;;;;;;18.07;9.77;;;;;;;;;;6216931;23;20401;-84
2024/02/17 11:42:39;;;;;;;15.10;8.40;;;;;;;;;;6216294;23;20455;-85
2024/02/17 11:45:47;;;;;;;15.13;8.93;;;;;;;;;;6199149;23;20404;-84
2024/02/17 11:48:32;;;;;;;16.73;10.27;;;;;;;;;;6204198;23;20437;-84
2024/02/17 11:51:40;;;;;;;16.00;9.10;;;;;;;;;;6221704;22;20452;-87
2024/02/17 11:54:30;;;;;;;17.37;10.17;;;;;;;;;;6216353;22;21133;-87
2024/02/17 11:57:40;;;;;;;;;;;;;;;;;;;;;
2024/02/17 12:00:28;;;;;;;12.13;9.70;;;;;;;;;;6141763;23;20439;-85
2024/02/17 12:09:32;;;;;;;14.83;10.00;;;;;;;;;;6289954;22;20443;-82
2024/02/17 12:12:04;;;;;;;12.83;10.10;;;;;;;;;;6270101;22;20419;-84
2024/02/17 12:14:35;;;;;;;13.93;9.60;;;;;;;;;;6270550;22;20470;-86
2024/02/17 12:17:25;;;;;;;13.23;10.17;;;;;;;;;;6290039;22;20411;-85
2024/02/17 12:20:12;;;;;;;13.90;8.93;;;;;;;;;;6266503;22;20400;-85
2024/02/17 12:22:44;;;;;;;10.80;8.83;;;;;;;;;;6288004;22;20423;-84
2024/02/17 12:25:13;;;;;;;11.90;9.00;;;;;;;;;;6284737;22;20396;-85
2024/02/17 12:27:53;;;;;;;11.53;8.90;;;;;;;;;;6276586;22;20457;-85
2024/02/17 12:30:25;;;;;;;16.97;9.53;;;;;;;;;;6275589;22;20493;-87
2024/02/17 12:33:11;;;;;;;12.40;9.00;;;;;;;;;;6274604;22;20443;-86
2024/02/17 12:36:00;;;;;;;16.40;10.17;;;;;;;;;;6276347;22;20388;-86
2024/02/17 12:38:43;;;;;;;10.80;8.70;;;;;;;;;;6230984;22;20391;-85
2024/02/17 12:41:36;;;;;;;17.63;9.33;;;;;;;;;;6279402;22;20459;-83
2024/02/17 12:44:21;;;;;;;11.13;8.73;;;;;;;;;;6275382;22;20412;-85
2024/02/17 12:47:03;;;;;;;15.27;9.67;;;;;;;;;;6268653;22;20411;-84
2024/02/17 12:49:35;;;;;;;9.70;8.67;;;;;;;;;;6278578;22;20411;-85
2024/02/17 12:52:25;;;;;;;14.07;8.60;;;;;;;;;;6293898;22;20427;-89
2024/02/17 12:54:56;;;;;;;9.83;8.83;;;;;;;;;;6271141;22;20381;-86
2024/02/17 12:57:42;;;;;;;20.33;9.27;;;;;;;;;;6276273;22;20396;-86
2024/02/17 13:00:17;;;;;;;15.10;8.43;;;;;;;;;;6280467;22;20483;-84
2024/02/17 13:03:24;;;;;;;14.10;8.10;;;;;;;;;;6273337;22;20447;-86
2024/02/17 13:06:17;;;;;;;13.80;7.60;;;;;;;;;;6276171;22;20407;-87
2024/02/17 13:09:16;;;;;;;10.80;8.50;;;;;;;;;;6244668;22;20450;-84
2024/02/17 13:12:11;;;;;;;13.70;7.90;;;;;;;;;;6276783;22;20420;-86
2024/02/17 13:14:48;;;;;;;12.70;7.53;;;;;;;;;;6272845;22;20486;-86
2024/02/17 13:17:22;;;;;;;15.30;8.17;;;;;;;;;;6279666;22;20404;-84
2024/02/17 13:20:03;;;;;;;8.50;7.70;;;;;;;;;;6278031;22;20757;-85
2024/02/17 13:22:35;;;;;;;10.40;7.93;;;;;;;;;;6276660;22;20439;-86
2024/02/17 13:25:18;;;;;;;10.13;7.50;;;;;;;;;;6275520;22;20399;-87
2024/02/17 13:28:11;;;;;;;;;;;;;;;;;;;;;
2024/02/17 13:31:19;;;;;;;16.37;8.57;;;;;;;;;;6274092;22;20403;-85
2024/02/17 13:34:13;;;;;;;8.90;6.93;;;;;;;;;;6276575;22;20424;-85
2024/02/17 13:37:04;;;;;;;14.30;6.97;;;;;;;;;;6277439;22;20411;-85
2024/02/17 13:39:52;;;;;;;9.07;6.60;;;;;;;;;;6259733;22;21010;-85
2024/02/17 13:42:25;;;;;;;10.43;7.30;;;;;;;;;;6248988;22;20427;-85
2024/02/17 13:45:03;;;;;;;10.33;6.83;;;;;;;;;;6272356;22;20411;-86
2024/02/17 13:47:38;;;;;;;9.80;7.10;;;;;;;;;;6273759;22;20415;-87
2024/02/17 13:50:35;;;;;;;10.67;6.33;;;;;;;;;;6213221;23;21443;-85
2024/02/17 13:53:13;;;;;;;10.73;6.50;;;;;;;;;;6188325;23;20437;-85
2024/02/17 13:55:52;;;;;;;7.30;6.17;;;;;;;;;;6188054;23;20849;-86
2024/02/17 13:58:38;;;;;;;9.73;7.07;;;;;;;;;;6211833;23;20487;-85
2024/02/17 14:01:07;;;;;;;8.63;7.27;;;;;;;;;;6188136;23;20456;-84
2024/02/17 14:03:43;;;;;;;11.83;6.73;;;;;;;;;;6186454;23;21594;-86
2024/02/17 14:06:16;;;;;;;14.50;7.67;;;;;;;;;;6249229;22;20418;-86
2024/02/17 14:09:13;;;;;;;10.10;6.93;;;;;;;;;;6191093;23;20489;-87
2024/02/17 14:14:37;;;;;;;8.23;6.10;;;;;;;;;;6293363;22;20447;-88
2024/02/17 14:17:32;;;;;;;8.17;6.77;;;;;;;;;;6274194;22;20431;-84
2024/02/17 14:20:13;;;;;;;8.50;7.07;;;;;;;;;;6277097;22;20392;-84
2024/02/17 14:22:56;;;;;;;15.83;8.37;;;;;;;;;;6239801;23;20405;-85
2024/02/17 14:25:48;;;;;;;11.17;6.70;;;;;;;;;;6220959;23;20919;-84
2024/02/17 14:28:27;;;;;;;7.47;6.10;;;;;;;;;;6217714;23;20415;-86
2024/02/17 14:31:04;;;;;;;12.10;6.17;;;;;;;;;;6216715;23;21142;-86
2024/02/17 14:33:37;;;;;;;7.17;5.80;;;;;;;;;;6219245;23;20476;-85
2024/02/17 14:36:16;;;;;;;7.53;6.07;;;;;;;;;;6217608;23;20408;-84
2024/02/17 14:38:49;;;;;;;11.00;6.60;;;;;;;;;;6242909;23;20420;-85
2024/02/17 14:41:19;;;;;;;9.20;6.13;;;;;;;;;;6244184;23;20440;-85
2024/02/17 14:43:51;;;;;;;8.30;6.07;;;;;;;;;;6218561;23;20476;-85
2024/02/17 14:46:34;;;;;;;8.50;6.30;;;;;;;;;;6218398;23;20491;-84
2024/02/17 14:49:14;;;;;;;8.87;5.33;;;;;;;;;;6219327;23;20422;-87
2024/02/17 15:08:37;;;;;;;6.87;5.70;;;;;;;;;;6274437;22;20430;-86
2024/02/17 15:36:43;;;;;;;9.10;5.83;;;;;;;;;;6278483;22;20376;-84
2024/02/17 15:59:08;;;;;;;;;;;;;;;;;;;;;
2024/02/17 16:08:37;;;;;;;11.37;6.40;;;;;;;;;;6125053;23;20436;-87
2024/02/17 16:15:19;;;;;;;8.33;6.20;;;;;;;;;;6009252;23;20478;-87
2024/02/17 16:24:50;;;;;;;8.63;5.33;;;;;;;;;;6226433;22;20455;-86
2024/02/17 16:27:39;;;;;;;7.30;5.50;;;;;;;;;;6262925;22;20403;-85
2024/02/17 16:30:54;;;;;;;12.27;5.60;;;;;;;;;;6257985;22;20383;-87
2024/02/17 16:34:10;;;;;;;;;;;;;;;;;;;;;
2024/02/17 16:44:33;;;;;;;8.70;5.37;;;;;;;;;;6041850;23;20415;-85
2024/02/17 16:47:03;;;;;;;7.30;5.00;;;;;;;;;;6019164;23;20917;-86
2024/02/17 16:49:33;;;;;;;11.80;5.17;;;;;;;;;;6079705;23;20492;-84
2024/02/17 16:52:04;;;;;;;7.03;6.00;;;;;;;;;;6126196;23;20436;-87
2024/02/17 16:55:03;;;;;;;11.23;5.80;;;;;;;;;;6129070;23;20564;-84
2024/02/17 16:57:33;;;;;;;12.40;8.90;;;;;;;;;;6126649;23;20409;-84
2024/02/17 17:00:14;;;;;;;10.40;6.63;;;;;;;;;;6104569;23;20424;-86
2024/02/17 17:06:17;;;;;;;6.97;4.80;;;;;;;;;;6126214;23;20399;-87
2024/02/17 17:08:49;;;;;;;10.60;5.47;;;;;;;;;;6129691;23;20483;-87
2024/02/17 17:11:32;;;;;;;13.40;7.80;;;;;;;;;;5997687;23;20436;-87
2024/02/17 17:14:21;;;;;;;8.60;5.57;;;;;;;;;;5991962;23;20488;-86
2024/02/17 17:17:07;;;;;;;;;;;;;;;;;;;;;
2024/02/17 17:19:38;;;;;;;14.50;11.33;;;;;;;;;;6099142;23;20416;-85
2024/02/17 17:22:15;;;;;;;12.40;7.97;;;;;;;;;;6119918;23;20452;-85
2024/02/17 17:25:02;;;;;;;9.77;6.43;;;;;;;;;;6118581;23;20447;-84
2024/02/17 17:27:48;;;;;;;20.03;14.47;;;;;;;;;;6094663;23;20659;-86
2024/02/17 17:30:25;;;;;;;53.13;44.97;;;;;;;;;;6224259;22;20415;-86
2024/02/17 17:33:02;;;;;;;11.23;6.97;;;;;;;;;;6240106;22;20412;-87
2024/02/17 17:35:32;;;;;;;12.90;7.47;;;;;;;;;;6272302;22;20440;-86
2024/02/17 17:38:03;;;;;;;8.70;6.60;;;;;;;;;;6275545;22;20408;-87
2024/02/17 17:40:31;;;;;;;11.53;7.57;;;;;;;;;;6274808;22;20465;-86
2024/02/17 17:43:05;;;;;;;14.87;7.37;;;;;;;;;;6273642;22;20400;-86
2024/02/17 17:45:51;;;;;;;13.23;8.37;;;;;;;;;;6272465;22;20486;-87
2024/02/17 17:48:21;;;;;;;9.27;8.37;;;;;;;;;;6271720;22;20416;-88
2024/02/17 17:50:51;;;;;;;13.50;9.47;;;;;;;;;;6274353;22;20424;-87
2024/02/17 17:53:23;;;;;;;12.00;8.37;;;;;;;;;;6275779;22;20402;-88
2024/02/17 17:56:04;;;;;;;12.10;8.53;;;;;;;;;;6274936;22;20756;-84
2024/02/17 17:58:34;;;;;;;11.30;8.50;;;;;;;;;;6273387;22;20396;-88
2024/02/17 18:01:20;;;;;;;12.17;9.77;;;;;;;;;;6273289;22;20436;-87
2024/02/17 18:03:51;;;;;;;13.60;8.53;;;;;;;;;;6274164;22;20399;-88
2024/02/17 18:06:22;;;;;;;14.97;8.60;;;;;;;;;;6274530;22;20427;-86
2024/02/17 18:08:55;;;;;;;12.10;8.47;;;;;;;;;;6276003;22;20430;-86
2024/02/17 18:11:25;;;;;;;10.00;8.77;;;;;;;;;;6273277;22;20424;-85
2024/02/17 18:13:55;;;;;;;16.93;9.10;;;;;;;;;;6270035;22;20443;-86
2024/02/17 18:16:32;;;;;;;12.90;9.53;;;;;;;;;;6272331;22;20394;-86
2024/02/17 18:19:20;;;;;;;13.03;8.10;;;;;;;;;;6272073;22;20432;-85
2024/02/17 18:22:05;;;;;;;16.00;9.60;;;;;;;;;;6271691;22;20428;-88
2024/02/17 18:24:43;;;;;;;17.07;9.63;;;;;;;;;;6273707;22;20400;-87
2024/02/17 18:27:13;;;;;;;13.80;8.30;;;;;;;;;;6271821;22;20414;-83
2024/02/17 18:29:45;;;;;;;10.00;8.90;;;;;;;;;;6270245;22;20416;-87
2024/02/17 18:32:20;;;;;;;15.47;8.93;;;;;;;;;;6269988;22;20435;-84
2024/02/17 18:34:48;;;;;;;14.03;9.50;;;;;;;;;;6273154;22;20450;-85
2024/02/17 18:37:21;;;;;;;13.83;9.90;;;;;;;;;;6270085;22;20424;-84
2024/02/17 18:39:54;;;;;;;17.23;10.47;;;;;;;;;;6274708;22;20389;-84
2024/02/17 18:42:37;;;;;;;17.17;12.07;;;;;;;;;;6251654;22;20420;-88
2024/02/17 18:45:19;;;;;;;18.03;13.53;;;;;;;;;;6266456;22;20408;-86
2024/02/17 18:51:49;;;;;;;18.30;13.10;;;;;;;;;;6263089;22;20442;-86
2024/02/17 18:54:25;;;;;;;17.20;11.20;;;;;;;;;;6269099;22;20435;-85
2024/02/17 18:57:04;;;;;;;21.37;11.33;;;;;;;;;;6256552;22;20498;-85
2024/02/17 18:59:39;;;;;;;19.90;11.63;;;;;;;;;;6257434;22;20408;-86
2024/02/17 19:02:15;;;;;;;13.57;10.40;;;;;;;;;;6256578;22;20470;-88
2024/02/17 19:04:58;;;;;;;15.87;10.20;;;;;;;;;;6255357;22;20407;-86
2024/02/17 19:11:08;;;;;;;17.17;9.60;;;;;;;;;;6204025;22;20434;-84
2024/02/17 19:13:44;;;;;;;11.70;10.00;;;;;;;;;;6276491;22;20400;-86
2024/02/17 19:16:15;;;;;;;13.00;10.83;;;;;;;;;;6278481;22;20471;-86
2024/02/17 19:19:10;;;;;;;18.33;10.27;;;;;;;;;;6248917;22;20461;-87
2024/02/17 19:21:57;;;;;;;12.33;9.43;;;;;;;;;;6229157;22;20442;-86
2024/02/17 19:24:27;;;;;;;18.57;9.87;;;;;;;;;;6275000;22;20411;-83
2024/02/17 19:27:06;;;;;;;15.50;10.30;;;;;;;;;;6275545;22;21343;-85
2024/02/17 19:29:37;;;;;;;14.70;10.40;;;;;;;;;;6248580;22;20426;-86